Shaw, MS (38773)

5:07 AM CDT on July 13, 2014 (GMT -0500)
Cleveland Municipal (KRNV) Elev 138 ft | 33.76 °N, 90.76 °W | Change Station

Current weather conditions updated 12 minutes ago

Clear
Clear
73 °F
Feels Like 73 °F
N
0
Wind Variable Wind from North

Today is forecast to be Warmer than yesterday.

Today
High -- | Low -- °F
--% Chance of Precip.
Yesterday
High -- | Low -- °F
Precip. -- in
6:02 AM 8:14 PM
Full, 99% visible
Pressure 30.04 in
Visibility 7.0 miles
Clouds Clear
Dew Point 73 °F
Humidity 100%
Rainfall 0.00 in
Snow Depth Not available.
UV 0 out of 12
Pollen 3.50 out of 12
Air Quality Not available.
Flu Activity No Activity
METAR KRNV 130955Z AUTO 00000KT 7SM CLR 23/23 A3004 RMK AO2 T02300230

More Conditions Fewer Conditions

Pressure 30.04 in
Visibility 7.0 miles
Clouds Clear
Dew Point 73 °F
Humidity 100%
Rainfall 0.00 in
Snow Depth Not available.
UV 0 out of 12
Pollen 3.50 out of 12
Air Quality Not available.
Flu Activity No Activity
METAR KRNV 130955Z AUTO 00000KT 7SM CLR 23/23 A3004 RMK AO2 T02300230

More Conditions Fewer Conditions

10-Day Weather Forecast

Almanac

Astronomy

Jul. 13, 2014 Rise Set
Actual Time 6:02 AM CDT 8:14 PM CDT
Civil Twilight 5:34 AM CDT 8:43 PM CDT
Nautical Twilight 4:59 AM CDT 9:17 PM CDT
Astronomical Twilight 4:22 AM CDT 9:55 PM CDT
Moon 9:11 PM CDT 7:27 AM CDT
Length of Visible Light 15h 08m
Length of Day
14h 12m
Tomorrow will be 1m 0s shorter.
Full, 99% of the Moon is Illuminated
Today
Full
Jul 18
Last Quarter
Jul 26
New
Aug 3
First Quarter
Aug 10
Full

Today's Extremes

State Highs State Lows

Community

WunderPhotos

Upload Photos

1,733,147 photos uploaded!

Nearby

Snow Depth

Station Depth Elevation
No new snow has been reported.

Earthquake Activity

City Distance Mag. Time & Date
No recent earthquake activity has been reported nearby.
Minimum magnitude displayed is 2.5.

Coastal Water Temperatures

Place Temperature
No Stations Reporting

Nearby Weather Stations

Station Location Temp. Heat Index Dew Point Humidity Wind Precip. Elev Updated Type
MesoWest SCOTT , Scott, MS 74 °F 71 °F 73 °F 97% NW  at  1 mph 0.00 in / hr 165 ft 4:00 AM CDT MADIS
MesoWest BEASLEY LAKE , Inverness, MS 73 °F - 73 °F 100% South  at  1 mph 0.00 in / hr 115 ft 4:00 AM CDT MADIS

Show More Stations Show Fewer Stations